createdAt,value
2019-01-24T00:00:10.079Z,88.20
2019-01-24T00:02:46.931Z,88.10
2019-01-24T00:05:21.308Z,88.20
2019-01-24T00:07:56.856Z,88.50
2019-01-24T00:10:30.839Z,88.40
2019-01-24T00:13:05.791Z,87.40
2019-01-24T00:15:39.582Z,87.70
2019-01-24T00:18:13.114Z,88.10
2019-01-24T00:20:46.930Z,88.50
2019-01-24T00:23:22.822Z,88.50
2019-01-24T00:25:56.162Z,88.90
2019-01-24T00:28:29.176Z,88.60
2019-01-24T00:31:03.613Z,88.70
2019-01-24T00:33:37.989Z,89.30
2019-01-24T00:36:12.397Z,89.60
2019-01-24T00:38:45.790Z,89.70
2019-01-24T00:41:21.915Z,89.70
2019-01-24T00:43:55.758Z,89.80
2019-01-24T00:46:32.729Z,89.20
2019-01-24T00:49:05.783Z,88.70
2019-01-24T00:51:40.612Z,88.80
2019-01-24T00:54:13.962Z,88.70
2019-01-24T00:56:53.038Z,88.70
2019-01-24T00:59:27.984Z,89.10
2019-01-24T01:02:01.465Z,88.50
2019-01-24T01:04:46.591Z,89.10
2019-01-24T01:07:21.106Z,88.90
2019-01-24T01:09:54.922Z,88.90
2019-01-24T01:12:30.443Z,89.10
2019-01-24T01:15:03.846Z,88.70
2019-01-24T01:17:37.126Z,88.80
2019-01-24T01:20:15.995Z,88.70
2019-01-24T01:22:50.589Z,88.60
2019-01-24T01:25:26.649Z,88.90
2019-01-24T01:28:07.775Z,88.90
2019-01-24T01:30:46.516Z,89.40
2019-01-24T01:33:22.040Z,89.20
2019-01-24T01:35:57.399Z,88.70
2019-01-24T01:38:39.153Z,88.80
2019-01-24T01:41:16.136Z,88.80
2019-01-24T01:43:53.659Z,88.70
2019-01-24T01:46:28.852Z,88.80
2019-01-24T01:49:07.619Z,88.20
2019-01-24T01:51:41.546Z,88.40
2019-01-24T01:54:16.315Z,88.40
2019-01-24T01:57:00.663Z,88.50
2019-01-24T01:59:39.310Z,88.60
2019-01-24T02:02:13.213Z,87.90
2019-01-24T02:04:54.456Z,88.40
2019-01-24T02:07:32.438Z,88.80
2019-01-24T02:10:06.720Z,89.30
2019-01-24T02:12:40.122Z,89.50
2019-01-24T02:15:13.937Z,89.30
2019-01-24T02:17:47.189Z,88.80
2019-01-24T02:20:22.885Z,89.10
2019-01-24T02:22:57.254Z,89.30
2019-01-24T02:25:31.331Z,89.10
2019-01-24T02:28:04.764Z,89.30
2019-01-24T02:30:38.357Z,89.70
2019-01-24T02:33:12.139Z,89.70
2019-01-24T02:35:45.695Z,88.90
2019-01-24T02:38:20.973Z,88.80
2019-01-24T02:40:54.166Z,89.10
2019-01-24T02:43:30.542Z,88.60
2019-01-24T02:46:05.522Z,88.40
2019-01-24T02:48:40.451Z,88.50
2019-01-24T02:51:14.713Z,88.50
2019-01-24T02:53:48.208Z,88.40
2019-01-24T02:56:22.434Z,88.90
2019-01-24T02:58:56.269Z,89.20
2019-01-24T03:01:31.475Z,89.30
2019-01-24T03:04:07.964Z,89.10
2019-01-24T03:06:41.447Z,88.90
2019-01-24T03:09:14.711Z,89.10
2019-01-24T03:11:49.847Z,89.10
2019-01-24T03:14:26.036Z,89.30
2019-01-24T03:17:00.749Z,88.60
2019-01-24T03:19:36.132Z,88.60
2019-01-24T03:22:10.337Z,88.80
2019-01-24T03:24:44.155Z,89.10
2019-01-24T03:27:18.476Z,89.20
2019-01-24T03:29:53.380Z,89.20
2019-01-24T03:32:26.777Z,88.90
2019-01-24T03:35:04.082Z,88.60
2019-01-24T03:37:35.676Z,88.50
2019-01-24T03:40:12.319Z,88.80
2019-01-24T03:42:48.094Z,88.90
2019-01-24T03:45:21.552Z,88.90
2019-01-24T03:47:58.333Z,89.10
2019-01-24T03:50:35.815Z,89.30
2019-01-24T03:53:09.628Z,89.20
2019-01-24T03:55:44.967Z,89.20
2019-01-24T03:58:19.384Z,89.30
2019-01-24T04:00:53.599Z,89.30
2019-01-24T04:03:28.061Z,89.50
2019-01-24T04:06:01.037Z,89.50
2019-01-24T04:08:34.418Z,89.70
2019-01-24T04:11:09.081Z,89.60
2019-01-24T04:13:42.546Z,89.40
2019-01-24T04:16:15.910Z,89.20
2019-01-24T04:18:49.644Z,89.30
2019-01-24T04:21:23.407Z,89.70
2019-01-24T04:23:59.602Z,89.60
2019-01-24T04:26:33.040Z,89.80
2019-01-24T04:29:07.090Z,89.70
2019-01-24T04:31:44.489Z,90.10
2019-01-24T04:34:18.641Z,90.20
2019-01-24T04:36:54.834Z,89.80
2019-01-24T04:39:28.028Z,89.70
2019-01-24T04:42:03.577Z,90.10
2019-01-24T04:44:36.547Z,90.30
2019-01-24T04:47:11.468Z,90.10
2019-01-24T04:49:45.332Z,90.20
2019-01-24T04:52:23.697Z,90.30
2019-01-24T04:54:56.801Z,90.40
2019-01-24T04:57:30.470Z,90.40
2019-01-24T05:00:10.492Z,90.70
2019-01-24T05:02:44.301Z,90.50
2019-01-24T05:05:18.240Z,91.20
2019-01-24T05:07:53.095Z,91.30
2019-01-24T05:10:26.597Z,91.40
2019-01-24T05:13:00.731Z,91.30
2019-01-24T05:15:36.113Z,91.30
2019-01-24T05:18:09.987Z,91.00
2019-01-24T05:20:44.685Z,90.60
2019-01-24T05:23:18.515Z,90.90
2019-01-24T05:25:51.784Z,90.70
2019-01-24T05:28:25.346Z,90.60
2019-01-24T05:30:59.520Z,90.60
2019-01-24T05:33:32.843Z,90.90
2019-01-24T05:36:07.689Z,90.90
2019-01-24T05:38:44.303Z,91.30
2019-01-24T05:41:18.312Z,91.60
2019-01-24T05:43:53.612Z,91.00
2019-01-24T05:46:29.696Z,90.00
2019-01-24T05:49:07.740Z,89.90
2019-01-24T05:51:41.222Z,89.80
2019-01-24T05:54:15.396Z,89.90
2019-01-24T05:56:52.682Z,90.40
2019-01-24T05:59:26.367Z,90.60
2019-01-24T06:02:00.180Z,90.30
2019-01-24T06:04:34.819Z,90.50
2019-01-24T06:07:08.864Z,90.40
2019-01-24T06:09:42.809Z,90.60
2019-01-24T06:12:15.965Z,90.60
2019-01-24T06:14:51.844Z,90.30
2019-01-24T06:17:27.567Z,90.10
2019-01-24T06:20:03.269Z,90.50
2019-01-24T06:22:37.775Z,90.60
2019-01-24T06:25:11.780Z,90.50
2019-01-24T06:27:45.750Z,90.60
2019-01-24T06:30:21.499Z,90.60
2019-01-24T06:32:56.588Z,91.00
2019-01-24T06:35:48.703Z,90.80
2019-01-24T06:38:18.478Z,90.70
2019-01-24T06:40:53.463Z,90.40
2019-01-24T06:43:24.838Z,90.60
2019-01-24T06:45:56.346Z,90.70
2019-01-24T06:48:27.545Z,90.60
2019-01-24T06:50:58.589Z,91.00
2019-01-24T06:53:31.058Z,91.30
2019-01-24T06:56:10.201Z,91.20
2019-01-24T06:58:46.088Z,91.40
2019-01-24T07:01:17.793Z,91.10
2019-01-24T07:03:51.199Z,90.70
2019-01-24T07:06:27.046Z,90.40
2019-01-24T07:08:59.512Z,90.40
2019-01-24T07:11:30.599Z,90.40
2019-01-24T07:14:02.457Z,90.20
2019-01-24T07:16:33.959Z,90.20
2019-01-24T07:19:05.821Z,90.10
2019-01-24T07:21:36.880Z,90.10
2019-01-24T07:24:07.927Z,90.20
2019-01-24T07:26:40.162Z,90.40
2019-01-24T07:29:11.426Z,90.00
2019-01-24T07:31:43.740Z,90.10
2019-01-24T07:34:16.567Z,89.20
2019-01-24T07:36:50.935Z,89.10
2019-01-24T07:39:23.405Z,88.90
2019-01-24T07:41:55.543Z,89.60
2019-01-24T07:44:28.508Z,89.90
2019-01-24T07:47:00.682Z,89.90
2019-01-24T07:49:32.351Z,90.10
2019-01-24T07:52:03.781Z,89.50
2019-01-24T07:54:35.135Z,89.70
2019-01-24T07:57:06.361Z,89.60
2019-01-24T07:59:38.146Z,89.10
2019-01-24T08:02:09.408Z,89.10
2019-01-24T08:04:40.557Z,89.60
2019-01-24T08:07:12.196Z,89.80
2019-01-24T08:09:43.432Z,89.70
2019-01-24T08:12:15.095Z,89.80
2019-01-24T08:14:47.262Z,89.50
2019-01-24T08:17:19.135Z,89.50
2019-01-24T08:19:50.399Z,88.80
2019-01-24T08:22:21.838Z,88.90
2019-01-24T08:24:53.506Z,89.20
2019-01-24T08:27:24.867Z,89.60
2019-01-24T08:29:57.480Z,89.50
2019-01-24T08:32:29.894Z,89.80
2019-01-24T08:35:02.337Z,90.10
2019-01-24T08:37:33.609Z,90.90
2019-01-24T08:40:05.884Z,91.10
2019-01-24T08:42:37.186Z,91.70
2019-01-24T08:45:10.232Z,92.30
2019-01-24T08:47:43.178Z,93.10
2019-01-24T08:50:17.084Z,93.90
2019-01-24T08:52:48.446Z,94.40
2019-01-24T08:55:28.716Z,94.60
2019-01-24T08:58:00.630Z,94.50
2019-01-24T09:00:33.143Z,94.60
2019-01-24T09:03:04.541Z,94.90
2019-01-24T09:05:36.139Z,95.00
2019-01-24T09:08:09.190Z,94.90
2019-01-24T09:10:41.158Z,94.90
2019-01-24T09:13:12.282Z,94.90
2019-01-24T09:15:43.413Z,95.00
2019-01-24T09:18:14.587Z,95.00
2019-01-24T09:20:45.925Z,95.40
2019-01-24T09:23:17.307Z,95.70
2019-01-24T09:25:48.871Z,95.70
2019-01-24T09:28:20.231Z,95.20
2019-01-24T09:30:51.493Z,95.40
2019-01-24T09:33:22.666Z,95.30
2019-01-24T09:35:54.218Z,95.20
2019-01-24T09:38:25.344Z,95.10
2019-01-24T09:40:56.495Z,94.80
2019-01-24T09:43:28.028Z,94.80
2019-01-24T09:45:59.280Z,94.40
2019-01-24T09:48:31.376Z,94.40
2019-01-24T09:51:03.764Z,94.00
2019-01-24T09:53:34.945Z,93.30
2019-01-24T09:56:06.613Z,93.40
2019-01-24T09:58:37.755Z,93.70
2019-01-24T10:01:11.566Z,92.80
2019-01-24T10:03:42.702Z,92.40
2019-01-24T10:06:14.606Z,93.30
2019-01-24T10:08:45.842Z,92.70
2019-01-24T10:11:23.287Z,92.00
2019-01-24T10:13:51.475Z,91.50
2019-01-24T10:16:22.357Z,91.30
2019-01-24T10:18:53.423Z,90.40
2019-01-24T10:21:24.795Z,91.50
2019-01-24T10:23:55.924Z,91.80
2019-01-24T10:26:28.313Z,91.80
2019-01-24T10:28:59.440Z,90.60
2019-01-24T10:31:30.885Z,91.40
2019-01-24T10:34:02.052Z,91.20
2019-01-24T10:36:35.227Z,90.90
2019-01-24T10:39:11.330Z,90.20
2019-01-24T10:41:42.600Z,90.20
2019-01-24T10:44:15.318Z,90.10
2019-01-24T10:46:47.171Z,90.60
2019-01-24T10:49:18.850Z,92.50
2019-01-24T10:51:50.375Z,93.20
2019-01-24T10:54:21.834Z,91.70
2019-01-24T10:56:52.973Z,92.70
2019-01-24T10:59:24.937Z,92.60
2019-01-24T11:01:56.634Z,92.10
2019-01-24T11:04:27.961Z,92.60
2019-01-24T11:06:59.598Z,93.70
2019-01-24T11:09:30.858Z,93.20
2019-01-24T11:12:02.446Z,93.40
2019-01-24T11:14:34.157Z,94.10
2019-01-24T11:17:05.607Z,94.10
2019-01-24T11:19:37.069Z,93.60
2019-01-24T11:22:10.472Z,93.10
2019-01-24T11:24:41.716Z,93.10
2019-01-24T11:27:13.177Z,93.10
2019-01-24T11:29:44.844Z,93.00
2019-01-24T11:32:16.256Z,91.60
2019-01-24T11:34:47.783Z,92.10
2019-01-24T11:37:18.822Z,93.90
2019-01-24T11:39:51.449Z,94.60
2019-01-24T11:42:22.525Z,95.10
2019-01-24T11:44:54.161Z,94.20
2019-01-24T11:47:25.590Z,94.50
2019-01-24T11:49:57.128Z,94.20
2019-01-24T11:52:28.466Z,93.90
2019-01-24T11:55:00.204Z,94.30
2019-01-24T11:57:31.425Z,93.50
2019-01-24T12:00:02.457Z,94.10
2019-01-24T12:02:39.564Z,92.60
2019-01-24T12:05:07.577Z,93.20
2019-01-24T12:07:38.689Z,92.20
2019-01-24T12:10:15.468Z,92.30
2019-01-24T12:12:46.686Z,92.90
2019-01-24T12:15:19.921Z,92.10
2019-01-24T12:17:51.741Z,92.40
2019-01-24T12:20:26.212Z,91.30
2019-01-24T12:22:57.970Z,91.00
2019-01-24T12:25:29.634Z,90.10
2019-01-24T12:28:03.122Z,90.70
2019-01-24T12:30:36.476Z,91.00
2019-01-24T12:33:08.735Z,91.40
2019-01-24T12:35:40.171Z,90.50
2019-01-24T12:38:11.441Z,90.50
2019-01-24T12:40:42.458Z,90.20
2019-01-24T12:43:13.616Z,90.40
2019-01-24T12:45:45.334Z,91.20
2019-01-24T12:48:18.143Z,91.00
2019-01-24T12:50:49.738Z,90.40
2019-01-24T12:53:21.340Z,90.20
2019-01-24T12:55:57.071Z,90.80
2019-01-24T12:58:28.134Z,90.10
2019-01-24T13:01:02.488Z,90.80
2019-01-24T13:03:35.854Z,90.30
2019-01-24T13:06:10.282Z,90.60
2019-01-24T13:08:44.579Z,90.60
2019-01-24T13:11:18.871Z,90.60
2019-01-24T13:13:53.573Z,89.40
2019-01-24T13:16:28.336Z,89.20
2019-01-24T13:19:02.176Z,89.70
2019-01-24T13:21:35.269Z,89.20
2019-01-24T13:24:07.840Z,89.30
2019-01-24T13:26:40.582Z,88.80
2019-01-24T13:29:14.165Z,89.10
2019-01-24T13:31:47.540Z,89.10
2019-01-24T13:34:19.025Z,89.40
2019-01-24T13:36:52.236Z,88.60
2019-01-24T13:39:26.000Z,88.30
2019-01-24T13:41:58.378Z,87.60
2019-01-24T13:44:33.137Z,88.80
2019-01-24T13:47:06.209Z,88.90
2019-01-24T13:49:39.708Z,88.40
2019-01-24T13:52:11.988Z,88.40
2019-01-24T13:54:45.501Z,88.40
2019-01-24T13:57:17.494Z,88.40
2019-01-24T13:59:51.455Z,89.30
2019-01-24T14:02:23.597Z,89.40
2019-01-24T14:04:56.372Z,89.10
2019-01-24T14:07:34.032Z,88.40
2019-01-24T14:10:07.484Z,88.90
2019-01-24T14:12:42.441Z,89.20
2019-01-24T14:15:16.001Z,88.40
2019-01-24T14:17:48.241Z,88.40
2019-01-24T14:20:21.247Z,87.90
2019-01-24T14:22:53.479Z,87.70
2019-01-24T14:25:26.581Z,88.40
2019-01-24T14:27:59.791Z,88.40
2019-01-24T14:30:31.908Z,88.40
2019-01-24T14:33:04.530Z,88.80
2019-01-24T14:35:36.675Z,88.60
2019-01-24T14:38:10.346Z,88.80
2019-01-24T14:40:44.047Z,89.60
2019-01-24T14:43:17.221Z,89.80
2019-01-24T14:45:54.378Z,89.60
2019-01-24T14:48:28.821Z,88.90
2019-01-24T14:51:01.217Z,89.40
2019-01-24T14:53:34.660Z,89.90
2019-01-24T14:56:08.688Z,89.20
2019-01-24T14:58:40.461Z,88.60
2019-01-24T15:01:14.183Z,88.80
2019-01-24T15:03:46.507Z,89.20
2019-01-24T15:06:18.527Z,90.10
2019-01-24T15:08:52.962Z,90.10
2019-01-24T15:11:26.592Z,89.80
2019-01-24T15:13:59.027Z,89.50
2019-01-24T15:16:30.706Z,89.50
2019-01-24T15:19:04.003Z,89.20
2019-01-24T15:21:36.870Z,89.40
2019-01-24T15:24:09.566Z,89.30
2019-01-24T15:26:42.033Z,89.50
2019-01-24T15:29:23.068Z,89.60
2019-01-24T15:31:57.535Z,89.80
2019-01-24T15:34:30.762Z,89.20
2019-01-24T15:37:03.752Z,89.40
2019-01-24T15:39:36.666Z,89.10
2019-01-24T15:42:09.384Z,89.80
2019-01-24T15:44:44.790Z,90.20
2019-01-24T15:47:17.153Z,89.90
2019-01-24T15:49:52.676Z,89.90
2019-01-24T15:52:26.339Z,90.00
2019-01-24T15:54:59.479Z,89.70
2019-01-24T15:57:33.922Z,89.80
2019-01-24T16:00:12.797Z,90.20
2019-01-24T16:02:45.078Z,90.60
2019-01-24T16:05:16.946Z,90.30
2019-01-24T16:07:50.742Z,90.00
2019-01-24T16:10:24.088Z,89.90
2019-01-24T16:12:56.400Z,90.20
2019-01-24T16:15:34.290Z,90.30
2019-01-24T16:18:11.591Z,90.90
2019-01-24T16:20:44.796Z,91.10
2019-01-24T16:23:18.258Z,91.30
2019-01-24T16:25:50.979Z,91.00
2019-01-24T16:28:24.781Z,90.70
2019-01-24T16:30:58.993Z,90.80
2019-01-24T16:33:38.747Z,90.60
2019-01-24T16:36:15.592Z,90.40
2019-01-24T16:38:48.357Z,90.80
2019-01-24T16:41:22.099Z,91.00
2019-01-24T16:43:55.655Z,90.20
2019-01-24T16:46:29.537Z,90.20
2019-01-24T16:49:02.818Z,90.00
2019-01-24T16:51:35.782Z,90.20
2019-01-24T16:54:09.580Z,90.60
2019-01-24T16:56:40.176Z,90.40
2019-01-24T16:59:15.827Z,90.30
2019-01-24T17:01:49.609Z,90.30
2019-01-24T17:04:22.632Z,90.80
2019-01-24T17:06:54.194Z,91.50
2019-01-24T17:09:25.018Z,91.80
2019-01-24T17:11:56.116Z,92.20
2019-01-24T17:14:30.798Z,92.50
2019-01-24T17:17:02.278Z,92.50
2019-01-24T17:19:33.518Z,92.30
2019-01-24T17:22:04.135Z,91.70
2019-01-24T17:24:35.023Z,91.30
2019-01-24T17:27:07.506Z,91.20
2019-01-24T17:29:49.811Z,91.30
2019-01-24T17:32:20.507Z,91.20
2019-01-24T17:34:53.649Z,91.00
2019-01-24T17:37:26.802Z,90.90
2019-01-24T17:40:05.886Z,91.20
2019-01-24T17:42:39.921Z,91.10
2019-01-24T17:45:14.171Z,91.00
2019-01-24T17:47:47.782Z,90.80
2019-01-24T17:50:22.557Z,91.00
2019-01-24T17:52:55.502Z,90.20
2019-01-24T17:55:31.559Z,90.50
2019-01-24T17:58:04.045Z,90.40
2019-01-24T18:00:40.803Z,90.30
2019-01-24T18:03:14.858Z,90.60
2019-01-24T18:05:51.126Z,91.00
2019-01-24T18:08:31.182Z,91.30
2019-01-24T18:11:00.787Z,91.00
2019-01-24T18:13:34.121Z,91.00
2019-01-24T18:16:08.540Z,90.30
2019-01-24T18:18:42.255Z,90.40
2019-01-24T18:21:18.054Z,90.10
2019-01-24T18:23:53.884Z,89.90
2019-01-24T18:26:28.805Z,89.70
2019-01-24T18:29:02.994Z,89.50
2019-01-24T18:31:38.954Z,89.50
2019-01-24T18:34:12.895Z,89.60
2019-01-24T18:36:46.948Z,90.00
2019-01-24T18:39:22.356Z,90.40
2019-01-24T18:41:57.301Z,90.40
2019-01-24T18:44:36.194Z,90.30
2019-01-24T18:47:11.000Z,90.10
2019-01-24T18:49:45.904Z,89.90
2019-01-24T18:52:20.482Z,90.00
2019-01-24T18:54:57.939Z,90.20
2019-01-24T18:57:32.268Z,90.60
2019-01-24T19:00:10.419Z,90.60
2019-01-24T19:02:44.954Z,90.80
2019-01-24T19:05:23.189Z,91.00
2019-01-24T19:08:00.792Z,90.70
2019-01-24T19:10:36.449Z,90.70
2019-01-24T19:13:13.006Z,90.80
2019-01-24T19:15:48.657Z,91.10
2019-01-24T19:18:22.827Z,91.10
2019-01-24T19:20:57.674Z,91.00
2019-01-24T19:23:32.000Z,91.40
2019-01-24T19:26:05.610Z,91.40
2019-01-24T19:28:41.468Z,91.20
2019-01-24T19:31:16.949Z,91.40
2019-01-24T19:33:52.250Z,91.20
2019-01-24T19:36:26.612Z,91.40
2019-01-24T19:39:00.479Z,91.40
2019-01-24T19:41:37.110Z,90.60
2019-01-24T19:44:15.618Z,91.10
2019-01-24T19:46:47.552Z,91.30
2019-01-24T19:49:24.735Z,91.20
2019-01-24T19:51:58.963Z,91.30
2019-01-24T19:54:33.203Z,91.50
2019-01-24T19:57:09.834Z,91.70
2019-01-24T19:59:43.995Z,91.90
2019-01-24T20:02:21.722Z,92.40
2019-01-24T20:04:56.156Z,92.50
2019-01-24T20:07:31.201Z,92.50
2019-01-24T20:10:06.824Z,92.70
2019-01-24T20:12:42.481Z,92.80
2019-01-24T20:15:19.580Z,92.80
2019-01-24T20:17:54.278Z,92.70
2019-01-24T20:20:28.934Z,92.90
2019-01-24T20:23:05.193Z,92.80
2019-01-24T20:25:43.354Z,92.80
2019-01-24T20:28:17.459Z,93.10
2019-01-24T20:30:54.101Z,93.00
2019-01-24T20:33:29.773Z,93.00
2019-01-24T20:36:05.477Z,93.30
2019-01-24T20:38:42.305Z,93.30
2019-01-24T20:41:17.153Z,93.00
2019-01-24T20:43:51.706Z,93.30
2019-01-24T20:46:28.377Z,93.30
2019-01-24T20:49:02.882Z,93.20
2019-01-24T20:51:38.445Z,93.30
2019-01-24T20:54:14.720Z,93.20
2019-01-24T20:56:51.293Z,93.30
2019-01-24T20:59:27.152Z,93.30
2019-01-24T21:02:02.109Z,92.90
2019-01-24T21:04:41.204Z,92.90
2019-01-24T21:07:16.612Z,92.90
2019-01-24T21:09:53.375Z,93.00
2019-01-24T21:12:28.547Z,93.10
2019-01-24T21:15:03.309Z,92.90
2019-01-24T21:17:40.114Z,92.70
2019-01-24T21:20:16.836Z,92.90
2019-01-24T21:22:55.058Z,93.10
2019-01-24T21:25:29.903Z,93.10
2019-01-24T21:28:05.478Z,93.20
2019-01-24T21:30:40.499Z,93.50
2019-01-24T21:33:16.289Z,93.70
2019-01-24T21:35:53.228Z,93.90
2019-01-24T21:38:30.051Z,93.90
2019-01-24T21:41:04.267Z,93.70
2019-01-24T21:43:38.825Z,93.80
2019-01-24T21:46:14.511Z,93.90
2019-01-24T21:48:49.711Z,93.90
2019-01-24T21:51:26.537Z,94.00
2019-01-24T21:53:59.925Z,94.20
2019-01-24T21:56:36.080Z,94.20
2019-01-24T21:59:09.890Z,94.20
2019-01-24T22:01:43.711Z,94.30
2019-01-24T22:04:19.439Z,94.30
2019-01-24T22:06:56.643Z,94.30
2019-01-24T22:09:33.976Z,94.50
2019-01-24T22:12:08.736Z,94.10
2019-01-24T22:14:43.189Z,94.00
2019-01-24T22:17:21.190Z,94.10
2019-01-24T22:19:54.990Z,93.80
2019-01-24T22:22:26.967Z,93.80
2019-01-24T22:24:58.170Z,93.80
2019-01-24T22:27:30.933Z,93.70
2019-01-24T22:30:06.534Z,93.50
2019-01-24T22:32:42.246Z,93.50
2019-01-24T22:35:16.412Z,93.70
2019-01-24T22:37:49.058Z,93.50
2019-01-24T22:40:22.346Z,93.40
2019-01-24T22:42:56.200Z,93.40
2019-01-24T22:45:28.904Z,93.30
2019-01-24T22:48:03.482Z,93.20
2019-01-24T22:50:35.972Z,93.20
2019-01-24T22:53:08.941Z,93.40
2019-01-24T22:55:41.861Z,93.30
2019-01-24T22:58:15.401Z,93.40
2019-01-24T23:01:40.126Z,93.50
2019-01-24T23:04:15.427Z,93.60
2019-01-24T23:06:48.546Z,93.30
2019-01-24T23:09:23.184Z,93.60
2019-01-24T23:11:54.750Z,93.30
2019-01-24T23:14:28.230Z,93.20
2019-01-24T23:17:02.038Z,93.50
2019-01-24T23:19:38.126Z,93.60
2019-01-24T23:22:11.809Z,93.60
2019-01-24T23:24:45.164Z,93.60
2019-01-24T23:27:16.444Z,93.00
2019-01-24T23:29:49.597Z,93.10
2019-01-24T23:32:23.272Z,93.20
2019-01-24T23:34:58.448Z,93.40
2019-01-24T23:37:32.000Z,93.60
2019-01-24T23:40:06.003Z,93.30
2019-01-24T23:42:39.583Z,93.50
2019-01-24T23:45:13.130Z,93.50
2019-01-24T23:47:47.132Z,93.50
2019-01-24T23:50:20.795Z,93.30
2019-01-24T23:52:55.243Z,93.60
2019-01-24T23:55:28.865Z,93.50
2019-01-24T23:58:03.796Z,93.60
